sensor_id;sensor_type;location;lat;lon;timestamp;pressure;altitude;pressure_sealevel;temperature;humidity
16190;BME280;41754;51.498;7.540;2023-04-02T00:01:23;99632.44;;;7.65;78.62
16190;BME280;41754;51.498;7.540;2023-04-02T00:04:13;99631.84;;;7.68;78.96
16190;BME280;41754;51.498;7.540;2023-04-02T00:06:55;99638.72;;;7.66;78.47
16190;BME280;41754;51.498;7.540;2023-04-02T00:09:43;99646.00;;;7.84;78.89
16190;BME280;41754;51.498;7.540;2023-04-02T00:12:14;99651.97;;;7.22;80.32
16190;BME280;41754;51.498;7.540;2023-04-02T00:14:50;99648.50;;;7.44;78.99
16190;BME280;41754;51.498;7.540;2023-04-02T00:17:22;99650.09;;;7.04;79.39
16190;BME280;41754;51.498;7.540;2023-04-02T00:19:54;99664.94;;;7.31;79.49
16190;BME280;41754;51.498;7.540;2023-04-02T00:22:26;99670.06;;;7.18;79.03
16190;BME280;41754;51.498;7.540;2023-04-02T00:24:55;99673.13;;;7.58;78.90
16190;BME280;41754;51.498;7.540;2023-04-02T00:27:23;99682.88;;;7.37;78.41
16190;BME280;41754;51.498;7.540;2023-04-02T00:29:55;99692.06;;;7.41;79.14
16190;BME280;41754;51.498;7.540;2023-04-02T00:32:25;99691.47;;;7.71;77.97
16190;BME280;41754;51.498;7.540;2023-04-02T00:34:54;99688.66;;;7.21;79.20
16190;BME280;41754;51.498;7.540;2023-04-02T00:37:25;99711.97;;;7.33;78.64
16190;BME280;41754;51.498;7.540;2023-04-02T00:39:59;99710.22;;;7.50;78.74
16190;BME280;41754;51.498;7.540;2023-04-02T00:42:29;99718.72;;;7.76;78.75
16190;BME280;41754;51.498;7.540;2023-04-02T00:45:00;99722.00;;;7.51;78.31
16190;BME280;41754;51.498;7.540;2023-04-02T00:47:32;99729.59;;;7.54;79.01
16190;BME280;41754;51.498;7.540;2023-04-02T00:50:05;99730.78;;;7.20;79.57
16190;BME280;41754;51.498;7.540;2023-04-02T00:52:35;99735.47;;;7.47;79.31
16190;BME280;41754;51.498;7.540;2023-04-02T00:55:06;99737.28;;;7.24;80.08
16190;BME280;41754;51.498;7.540;2023-04-02T00:57:40;99742.78;;;7.79;79.27
16190;BME280;41754;51.498;7.540;2023-04-02T01:00:20;99756.44;;;7.38;79.41
16190;BME280;41754;51.498;7.540;2023-04-02T01:03:24;99756.78;;;7.50;79.85
16190;BME280;41754;51.498;7.540;2023-04-02T01:05:58;99769.25;;;7.43;80.33
16190;BME280;41754;51.498;7.540;2023-04-02T01:08:37;99772.50;;;7.12;80.10
16190;BME280;41754;51.498;7.540;2023-04-02T01:11:19;99777.34;;;7.15;79.88
16190;BME280;41754;51.498;7.540;2023-04-02T01:13:57;99789.78;;;7.26;79.56
16190;BME280;41754;51.498;7.540;2023-04-02T01:16:38;99785.47;;;7.07;79.52
16190;BME280;41754;51.498;7.540;2023-04-02T01:22:07;99793.50;;;6.84;80.24
16190;BME280;41754;51.498;7.540;2023-04-02T01:24:37;99805.53;;;6.83;79.67
16190;BME280;41754;51.498;7.540;2023-04-02T01:27:11;99807.16;;;6.65;80.03
16190;BME280;41754;51.498;7.540;2023-04-02T01:29:45;99805.75;;;6.87;79.38
16190;BME280;41754;51.498;7.540;2023-04-02T01:32:16;99814.56;;;6.84;78.87
16190;BME280;41754;51.498;7.540;2023-04-02T01:34:48;99822.00;;;6.78;79.16
16190;BME280;41754;51.498;7.540;2023-04-02T01:37:26;99821.81;;;6.75;79.98
16190;BME280;41754;51.498;7.540;2023-04-02T01:40:11;99825.59;;;6.60;80.36
16190;BME280;41754;51.498;7.540;2023-04-02T01:42:50;99837.19;;;6.70;80.66
16190;BME280;41754;51.498;7.540;2023-04-02T01:45:22;99845.69;;;7.20;79.26
16190;BME280;41754;51.498;7.540;2023-04-02T01:47:50;99849.31;;;7.16;78.64
16190;BME280;41754;51.498;7.540;2023-04-02T01:50:26;99846.09;;;6.76;79.67
16190;BME280;41754;51.498;7.540;2023-04-02T01:52:59;99857.13;;;6.52;80.47
16190;BME280;41754;51.498;7.540;2023-04-02T01:55:33;99865.00;;;6.91;80.02
16190;BME280;41754;51.498;7.540;2023-04-02T01:58:02;99865.47;;;6.80;80.39
16190;BME280;41754;51.498;7.540;2023-04-02T02:00:34;99871.16;;;6.64;79.93
16190;BME280;41754;51.498;7.540;2023-04-02T02:03:04;99875.44;;;6.52;80.47
16190;BME280;41754;51.498;7.540;2023-04-02T02:05:36;99878.47;;;6.88;80.38
16190;BME280;41754;51.498;7.540;2023-04-02T02:08:04;99879.88;;;6.66;79.49
16190;BME280;41754;51.498;7.540;2023-04-02T02:10:35;99882.41;;;6.20;79.55
16190;BME280;41754;51.498;7.540;2023-04-02T02:13:05;99887.47;;;6.32;80.07
16190;BME280;41754;51.498;7.540;2023-04-02T02:15:35;99891.19;;;6.60;79.23
16190;BME280;41754;51.498;7.540;2023-04-02T02:18:05;99893.28;;;6.25;79.80
16190;BME280;41754;51.498;7.540;2023-04-02T02:20:34;99897.00;;;6.34;79.55
16190;BME280;41754;51.498;7.540;2023-04-02T02:23:02;99899.59;;;6.45;79.03
16190;BME280;41754;51.498;7.540;2023-04-02T02:25:33;99903.66;;;6.47;78.95
16190;BME280;41754;51.498;7.540;2023-04-02T02:28:06;99903.59;;;6.52;78.84
16190;BME280;41754;51.498;7.540;2023-04-02T02:30:41;99900.88;;;6.04;79.67
16190;BME280;41754;51.498;7.540;2023-04-02T02:33:15;99917.22;;;6.09;80.01
16190;BME280;41754;51.498;7.540;2023-04-02T02:35:48;99922.38;;;6.35;78.47
16190;BME280;41754;51.498;7.540;2023-04-02T02:38:47;99930.78;;;6.44;78.37
16190;BME280;41754;51.498;7.540;2023-04-02T02:41:40;99935.94;;;6.45;78.67
16190;BME280;41754;51.498;7.540;2023-04-02T02:44:12;99942.81;;;6.43;78.03
16190;BME280;41754;51.498;7.540;2023-04-02T02:46:47;99947.47;;;6.18;78.77
16190;BME280;41754;51.498;7.540;2023-04-02T02:49:20;99963.22;;;5.97;79.52
16190;BME280;41754;51.498;7.540;2023-04-02T02:51:52;99960.44;;;6.02;79.88
16190;BME280;41754;51.498;7.540;2023-04-02T02:54:33;99962.47;;;5.92;79.98
16190;BME280;41754;51.498;7.540;2023-04-02T02:57:04;99973.41;;;6.16;79.48
16190;BME280;41754;51.498;7.540;2023-04-02T02:59:34;99980.38;;;6.03;79.33
16190;BME280;41754;51.498;7.540;2023-04-02T03:02:05;99983.06;;;6.08;79.60
16190;BME280;41754;51.498;7.540;2023-04-02T03:04:34;99986.94;;;6.02;79.31
16190;BME280;41754;51.498;7.540;2023-04-02T03:07:08;99985.59;;;5.99;79.07
16190;BME280;41754;51.498;7.540;2023-04-02T03:09:41;99989.06;;;5.81;79.34
16190;BME280;41754;51.498;7.540;2023-04-02T03:12:27;99988.56;;;6.32;78.28
16190;BME280;41754;51.498;7.540;2023-04-02T03:14:59;99997.28;;;6.05;78.58
16190;BME280;41754;51.498;7.540;2023-04-02T03:17:33;100009.75;;;5.87;78.76
16190;BME280;41754;51.498;7.540;2023-04-02T03:20:11;100015.53;;;5.80;79.08
16190;BME280;41754;51.498;7.540;2023-04-02T03:22:46;100019.25;;;5.95;79.17
16190;BME280;41754;51.498;7.540;2023-04-02T03:25:24;100036.03;;;5.78;79.41
16190;BME280;41754;51.498;7.540;2023-04-02T03:28:00;100031.66;;;5.77;79.26
16190;BME280;41754;51.498;7.540;2023-04-02T03:30:37;100045.69;;;5.99;78.60
16190;BME280;41754;51.498;7.540;2023-04-02T03:33:12;100047.81;;;5.73;79.26
16190;BME280;41754;51.498;7.540;2023-04-02T03:35:45;100047.84;;;6.02;78.69
16190;BME280;41754;51.498;7.540;2023-04-02T03:38:19;100047.53;;;5.75;78.88
16190;BME280;41754;51.498;7.540;2023-04-02T03:40:58;100052.38;;;5.83;79.23
16190;BME280;41754;51.498;7.540;2023-04-02T03:43:32;100066.31;;;5.81;78.85
16190;BME280;41754;51.498;7.540;2023-04-02T03:46:11;100067.31;;;6.25;78.54
16190;BME280;41754;51.498;7.540;2023-04-02T03:48:47;100074.09;;;5.98;78.28
16190;BME280;41754;51.498;7.540;2023-04-02T03:51:19;100077.09;;;5.63;78.51
16190;BME280;41754;51.498;7.540;2023-04-02T03:53:50;100077.03;;;5.68;79.47
16190;BME280;41754;51.498;7.540;2023-04-02T03:56:24;100095.44;;;5.91;78.42
16190;BME280;41754;51.498;7.540;2023-04-02T03:59:04;100095.00;;;5.79;77.38
16190;BME280;41754;51.498;7.540;2023-04-02T04:01:38;100107.44;;;5.95;77.60
16190;BME280;41754;51.498;7.540;2023-04-02T04:04:15;100107.88;;;5.73;77.44
16190;BME280;41754;51.498;7.540;2023-04-02T04:06:48;100122.91;;;5.71;78.16
16190;BME280;41754;51.498;7.540;2023-04-02T04:09:22;100123.53;;;5.52;78.47
16190;BME280;41754;51.498;7.540;2023-04-02T04:11:55;100129.00;;;5.52;78.09
16190;BME280;41754;51.498;7.540;2023-04-02T04:14:30;100133.94;;;5.50;78.02
16190;BME280;41754;51.498;7.540;2023-04-02T04:17:03;100142.84;;;5.71;77.93
16190;BME280;41754;51.498;7.540;2023-04-02T04:19:44;100143.94;;;5.70;77.22
16190;BME280;41754;51.498;7.540;2023-04-02T04:22:17;100144.97;;;5.15;78.33
16190;BME280;41754;51.498;7.540;2023-04-02T04:24:49;100157.31;;;5.67;77.93
16190;BME280;41754;51.498;7.540;2023-04-02T04:27:23;100156.91;;;5.44;78.15
16190;BME280;41754;51.498;7.540;2023-04-02T04:30:03;100166.88;;;5.69;77.29
16190;BME280;41754;51.498;7.540;2023-04-02T04:32:38;100169.16;;;5.42;77.51
16190;BME280;41754;51.498;7.540;2023-04-02T04:35:25;100171.13;;;5.31;77.52
16190;BME280;41754;51.498;7.540;2023-04-02T04:37:58;100172.06;;;5.66;76.83
16190;BME280;41754;51.498;7.540;2023-04-02T04:40:32;100185.06;;;5.84;76.32
16190;BME280;41754;51.498;7.540;2023-04-02T04:43:04;100185.94;;;5.74;76.00
16190;BME280;41754;51.498;7.540;2023-04-02T04:45:39;100191.72;;;5.63;76.83
16190;BME280;41754;51.498;7.540;2023-04-02T04:48:12;100198.13;;;5.38;77.23
16190;BME280;41754;51.498;7.540;2023-04-02T04:50:49;100206.88;;;5.19;78.51
16190;BME280;41754;51.498;7.540;2023-04-02T04:53:24;100214.13;;;5.54;77.23
16190;BME280;41754;51.498;7.540;2023-04-02T04:55:56;100216.16;;;5.23;76.21
16190;BME280;41754;51.498;7.540;2023-04-02T04:58:48;100225.41;;;5.22;76.15
16190;BME280;41754;51.498;7.540;2023-04-02T05:01:22;100226.75;;;5.45;75.93
16190;BME280;41754;51.498;7.540;2023-04-02T05:03:58;100237.72;;;5.05;75.98
16190;BME280;41754;51.498;7.540;2023-04-02T05:06:38;100245.31;;;5.33;75.98
16190;BME280;41754;51.498;7.540;2023-04-02T05:09:13;100244.78;;;5.31;76.20
16190;BME280;41754;51.498;7.540;2023-04-02T05:11:48;100254.88;;;5.15;76.02
16190;BME280;41754;51.498;7.540;2023-04-02T05:14:24;100256.28;;;4.98;75.21
16190;BME280;41754;51.498;7.540;2023-04-02T05:16:59;100266.09;;;5.04;76.32
16190;BME280;41754;51.498;7.540;2023-04-02T05:19:36;100260.66;;;4.99;75.73
16190;BME280;41754;51.498;7.540;2023-04-02T05:22:19;100274.00;;;5.20;75.49
16190;BME280;41754;51.498;7.540;2023-04-02T05:24:55;100281.88;;;5.32;74.68
16190;BME280;41754;51.498;7.540;2023-04-02T05:27:32;100289.03;;;4.82;75.64
16190;BME280;41754;51.498;7.540;2023-04-02T05:30:12;100289.53;;;5.20;75.82
16190;BME280;41754;51.498;7.540;2023-04-02T05:32:46;100299.06;;;5.17;75.08
16190;BME280;41754;51.498;7.540;2023-04-02T05:35:19;100301.00;;;5.07;74.73
16190;BME280;41754;51.498;7.540;2023-04-02T05:37:52;100318.97;;;5.33;74.89
16190;BME280;41754;51.498;7.540;2023-04-02T05:40:22;100317.88;;;5.49;74.81
16190;BME280;41754;51.498;7.540;2023-04-02T05:42:54;100322.00;;;5.32;73.74
16190;BME280;41754;51.498;7.540;2023-04-02T05:45:27;100329.34;;;5.31;74.95
16190;BME280;41754;51.498;7.540;2023-04-02T05:48:03;100330.97;;;5.42;74.38
16190;BME280;41754;51.498;7.540;2023-04-02T05:50:41;100327.97;;;5.34;73.58
16190;BME280;41754;51.498;7.540;2023-04-02T05:53:20;100335.06;;;5.24;73.13
16190;BME280;41754;51.498;7.540;2023-04-02T05:55:54;100336.72;;;5.25;72.99
16190;BME280;41754;51.498;7.540;2023-04-02T05:58:30;100337.81;;;5.19;73.14
16190;BME280;41754;51.498;7.540;2023-04-02T06:01:20;100354.72;;;5.01;72.94
16190;BME280;41754;51.498;7.540;2023-04-02T06:03:56;100358.53;;;5.05;73.10
16190;BME280;41754;51.498;7.540;2023-04-02T06:06:42;100365.91;;;5.10;72.58
16190;BME280;41754;51.498;7.540;2023-04-02T06:09:16;100366.44;;;4.86;72.31
16190;BME280;41754;51.498;7.540;2023-04-02T06:11:52;100370.75;;;4.62;73.26
16190;BME280;41754;51.498;7.540;2023-04-02T06:14:22;100387.72;;;5.10;72.97
16190;BME280;41754;51.498;7.540;2023-04-02T06:16:51;100390.97;;;4.91;73.12
16190;BME280;41754;51.498;7.540;2023-04-02T06:19:22;100397.53;;;5.06;73.37
16190;BME280;41754;51.498;7.540;2023-04-02T06:21:57;100398.06;;;5.03;73.49
16190;BME280;41754;51.498;7.540;2023-04-02T06:24:28;100407.34;;;4.81;74.61
16190;BME280;41754;51.498;7.540;2023-04-02T06:27:01;100423.63;;;4.66;75.25
16190;BME280;41754;51.498;7.540;2023-04-02T06:29:33;100426.19;;;5.08;74.49
16190;BME280;41754;51.498;7.540;2023-04-02T06:32:09;100431.38;;;5.20;74.54
16190;BME280;41754;51.498;7.540;2023-04-02T06:34:41;100438.66;;;4.79;74.13
16190;BME280;41754;51.498;7.540;2023-04-02T06:37:18;100447.13;;;4.87;74.72
16190;BME280;41754;51.498;7.540;2023-04-02T06:39:54;100445.50;;;4.81;74.12
16190;BME280;41754;51.498;7.540;2023-04-02T06:42:25;100455.31;;;4.87;74.17
16190;BME280;41754;51.498;7.540;2023-04-02T06:45:16;100455.44;;;5.43;72.57
16190;BME280;41754;51.498;7.540;2023-04-02T06:47:51;100460.81;;;5.03;72.05
16190;BME280;41754;51.498;7.540;2023-04-02T06:50:29;100466.81;;;4.94;72.19
16190;BME280;41754;51.498;7.540;2023-04-02T06:53:02;100467.38;;;5.12;72.16
16190;BME280;41754;51.498;7.540;2023-04-02T06:55:40;100478.22;;;4.81;71.18
16190;BME280;41754;51.498;7.540;2023-04-02T06:58:10;100478.22;;;4.91;70.95
16190;BME280;41754;51.498;7.540;2023-04-02T07:00:40;100484.25;;;4.99;70.85
16190;BME280;41754;51.498;7.540;2023-04-02T07:03:16;100489.72;;;5.09;70.26
16190;BME280;41754;51.498;7.540;2023-04-02T07:05:46;100488.41;;;5.32;71.07
16190;BME280;41754;51.498;7.540;2023-04-02T07:08:14;100513.69;;;4.97;71.06
16190;BME280;41754;51.498;7.540;2023-04-02T07:10:44;100512.56;;;4.82;70.82
16190;BME280;41754;51.498;7.540;2023-04-02T07:13:14;100510.47;;;5.15;69.87
16190;BME280;41754;51.498;7.540;2023-04-02T07:15:44;100514.03;;;5.25;69.35
16190;BME280;41754;51.498;7.540;2023-04-02T07:18:21;100525.78;;;5.31;69.32
16190;BME280;41754;51.498;7.540;2023-04-02T07:20:50;100526.94;;;5.45;68.13
16190;BME280;41754;51.498;7.540;2023-04-02T07:23:18;100536.94;;;5.24;68.85
16190;BME280;41754;51.498;7.540;2023-04-02T07:25:49;100535.09;;;5.40;68.38
16190;BME280;41754;51.498;7.540;2023-04-02T07:28:18;100548.47;;;5.42;68.74
16190;BME280;41754;51.498;7.540;2023-04-02T07:30:49;100547.03;;;5.29;67.94
16190;BME280;41754;51.498;7.540;2023-04-02T07:33:19;100561.19;;;5.16;67.01
16190;BME280;41754;51.498;7.540;2023-04-02T07:35:49;100562.31;;;5.30;66.61
16190;BME280;41754;51.498;7.540;2023-04-02T07:38:17;100571.66;;;5.34;67.22
16190;BME280;41754;51.498;7.540;2023-04-02T07:40:45;100566.78;;;5.51;66.56
16190;BME280;41754;51.498;7.540;2023-04-02T07:43:14;100568.66;;;5.41;67.03
16190;BME280;41754;51.498;7.540;2023-04-02T07:45:42;100575.81;;;5.77;65.87
16190;BME280;41754;51.498;7.540;2023-04-02T07:48:12;100591.91;;;5.59;65.90
16190;BME280;41754;51.498;7.540;2023-04-02T07:50:40;100586.16;;;5.55;67.11
16190;BME280;41754;51.498;7.540;2023-04-02T07:53:17;100589.69;;;5.56;65.51
16190;BME280;41754;51.498;7.540;2023-04-02T07:55:52;100595.66;;;5.32;66.68
16190;BME280;41754;51.498;7.540;2023-04-02T07:58:21;100603.66;;;5.69;66.25
16190;BME280;41754;51.498;7.540;2023-04-02T08:00:49;100606.63;;;5.52;66.14
16190;BME280;41754;51.498;7.540;2023-04-02T08:03:18;100613.91;;;5.32;67.04
16190;BME280;41754;51.498;7.540;2023-04-02T08:05:51;100619.22;;;5.64;65.40
16190;BME280;41754;51.498;7.540;2023-04-02T08:08:19;100622.72;;;5.49;65.28
16190;BME280;41754;51.498;7.540;2023-04-02T08:10:47;100637.19;;;5.49;66.22
16190;BME280;41754;51.498;7.540;2023-04-02T08:13:17;100643.81;;;5.69;65.98
16190;BME280;41754;51.498;7.540;2023-04-02T08:15:46;100639.69;;;5.76;64.59
16190;BME280;41754;51.498;7.540;2023-04-02T08:18:14;100640.78;;;4.98;64.73
16190;BME280;41754;51.498;7.540;2023-04-02T08:20:42;100643.16;;;5.36;65.62
16190;BME280;41754;51.498;7.540;2023-04-02T08:23:13;100651.66;;;5.55;64.70
16190;BME280;41754;51.498;7.540;2023-04-02T08:25:43;100654.66;;;5.43;64.89
16190;BME280;41754;51.498;7.540;2023-04-02T08:28:12;100668.66;;;5.72;64.89
16190;BME280;41754;51.498;7.540;2023-04-02T08:30:40;100668.41;;;5.84;63.95
16190;BME280;41754;51.498;7.540;2023-04-02T08:33:09;100671.34;;;5.62;63.17
16190;BME280;41754;51.498;7.540;2023-04-02T08:35:37;100676.00;;;5.67;63.95
16190;BME280;41754;51.498;7.540;2023-04-02T08:38:06;100677.97;;;5.81;63.54
16190;BME280;41754;51.498;7.540;2023-04-02T08:40:37;100685.28;;;5.66;63.73
16190;BME280;41754;51.498;7.540;2023-04-02T08:43:17;100690.31;;;6.20;63.12
16190;BME280;41754;51.498;7.540;2023-04-02T08:45:59;100702.28;;;6.03;62.53
16190;BME280;41754;51.498;7.540;2023-04-02T08:48:34;100695.75;;;5.99;62.59
16190;BME280;41754;51.498;7.540;2023-04-02T08:51:06;100709.97;;;6.11;62.25
16190;BME280;41754;51.498;7.540;2023-04-02T08:53:36;100703.97;;;6.30;61.59
16190;BME280;41754;51.498;7.540;2023-04-02T08:56:08;100711.63;;;6.53;60.59
16190;BME280;41754;51.498;7.540;2023-04-02T08:58:46;100720.34;;;6.15;61.66
16190;BME280;41754;51.498;7.540;2023-04-02T09:01:22;100716.56;;;6.46;61.05
16190;BME280;41754;51.498;7.540;2023-04-02T09:03:57;100724.69;;;6.00;61.83
16190;BME280;41754;51.498;7.540;2023-04-02T09:06:26;100729.31;;;5.90;61.72
16190;BME280;41754;51.498;7.540;2023-04-02T09:08:55;100732.09;;;6.10;62.27
16190;BME280;41754;51.498;7.540;2023-04-02T09:11:26;100735.69;;;6.71;61.70
16190;BME280;41754;51.498;7.540;2023-04-02T09:13:58;100746.91;;;6.45;61.30
16190;BME280;41754;51.498;7.540;2023-04-02T09:16:39;100739.47;;;6.30;60.92
16190;BME280;41754;51.498;7.540;2023-04-02T09:19:17;100743.88;;;6.97;59.37
16190;BME280;41754;51.498;7.540;2023-04-02T09:21:53;100748.28;;;6.57;61.01
16190;BME280;41754;51.498;7.540;2023-04-02T09:24:23;100751.81;;;6.73;59.89
16190;BME280;41754;51.498;7.540;2023-04-02T09:26:51;100762.19;;;6.66;59.41
16190;BME280;41754;51.498;7.540;2023-04-02T09:29:38;100769.03;;;6.89;58.72
16190;BME280;41754;51.498;7.540;2023-04-02T09:32:18;100772.03;;;6.67;58.68
16190;BME280;41754;51.498;7.540;2023-04-02T09:35:05;100769.59;;;7.06;58.61
16190;BME280;41754;51.498;7.540;2023-04-02T09:38:10;100773.16;;;6.86;58.08
16190;BME280;41754;51.498;7.540;2023-04-02T09:40:46;100782.16;;;7.12;58.70
16190;BME280;41754;51.498;7.540;2023-04-02T09:43:16;100793.09;;;7.43;58.79
16190;BME280;41754;51.498;7.540;2023-04-02T09:45:55;100794.66;;;7.54;57.43
16190;BME280;41754;51.498;7.540;2023-04-02T09:48:26;100801.03;;;7.04;56.77
16190;BME280;41754;51.498;7.540;2023-04-02T09:51:11;100797.22;;;6.89;57.09
16190;BME280;41754;51.498;7.540;2023-04-02T09:53:41;100803.47;;;7.41;56.38
16190;BME280;41754;51.498;7.540;2023-04-02T09:56:16;100809.25;;;7.24;57.36
16190;BME280;41754;51.498;7.540;2023-04-02T09:58:45;100819.38;;;6.83;57.49
16190;BME280;41754;51.498;7.540;2023-04-02T10:01:30;100824.28;;;7.11;57.25
16190;BME280;41754;51.498;7.540;2023-04-02T10:04:02;100822.91;;;6.78;57.78
16190;BME280;41754;51.498;7.540;2023-04-02T10:06:33;100821.81;;;7.45;57.14
16190;BME280;41754;51.498;7.540;2023-04-02T10:09:19;100833.59;;;7.10;56.49
16190;BME280;41754;51.498;7.540;2023-04-02T10:11:48;100833.88;;;6.98;57.07
16190;BME280;41754;51.498;7.540;2023-04-02T10:14:20;100846.97;;;6.56;57.60
16190;BME280;41754;51.498;7.540;2023-04-02T10:16:54;100851.69;;;7.21;57.93
16190;BME280;41754;51.498;7.540;2023-04-02T10:19:27;100865.06;;;7.13;56.27
16190;BME280;41754;51.498;7.540;2023-04-02T10:22:00;100860.44;;;7.23;56.77
16190;BME280;41754;51.498;7.540;2023-04-02T10:24:29;100861.78;;;7.67;55.45
16190;BME280;41754;51.498;7.540;2023-04-02T10:27:06;100858.97;;;7.82;54.07
16190;BME280;41754;51.498;7.540;2023-04-02T10:32:39;100878.22;;;7.56;54.78
16190;BME280;41754;51.498;7.540;2023-04-02T10:35:16;100882.28;;;7.69;54.04
16190;BME280;41754;51.498;7.540;2023-04-02T10:40:45;100887.53;;;7.25;55.56
16190;BME280;41754;51.498;7.540;2023-04-02T10:43:33;100898.22;;;7.32;55.37
16190;BME280;41754;51.498;7.540;2023-04-02T10:46:06;100905.88;;;7.35;54.40
16190;BME280;41754;51.498;7.540;2023-04-02T10:48:45;100906.41;;;7.26;55.13
16190;BME280;41754;51.498;7.540;2023-04-02T10:51:28;100903.84;;;8.06;54.97
16190;BME280;41754;51.498;7.540;2023-04-02T10:54:10;100917.13;;;7.43;54.38
16190;BME280;41754;51.498;7.540;2023-04-02T10:56:43;100915.75;;;7.31;53.56
16190;BME280;41754;51.498;7.540;2023-04-02T10:59:20;100920.63;;;7.18;54.24
16190;BME280;41754;51.498;7.540;2023-04-02T11:01:50;100922.03;;;7.36;56.39
16190;BME280;41754;51.498;7.540;2023-04-02T11:04:22;100922.31;;;7.35;54.97
16190;BME280;41754;51.498;7.540;2023-04-02T11:06:56;100916.22;;;7.94;54.98
16190;BME280;41754;51.498;7.540;2023-04-02T11:09:42;100920.03;;;7.98;54.57
16190;BME280;41754;51.498;7.540;2023-04-02T11:12:18;100931.59;;;7.54;54.19
16190;BME280;41754;51.498;7.540;2023-04-02T11:14:49;100935.97;;;7.75;54.62
16190;BME280;41754;51.498;7.540;2023-04-02T11:17:18;100933.81;;;7.37;54.26
16190;BME280;41754;51.498;7.540;2023-04-02T11:19:46;100936.00;;;7.29;54.87
16190;BME280;41754;51.498;7.540;2023-04-02T11:22:15;100940.38;;;7.31;54.76
16190;BME280;41754;51.498;7.540;2023-04-02T11:24:46;100937.59;;;7.86;52.97
16190;BME280;41754;51.498;7.540;2023-04-02T11:27:21;100942.56;;;7.49;52.36
16190;BME280;41754;51.498;7.540;2023-04-02T11:29:54;100951.25;;;8.07;52.79
16190;BME280;41754;51.498;7.540;2023-04-02T11:32:27;100958.59;;;8.27;53.42
16190;BME280;41754;51.498;7.540;2023-04-02T11:35:02;100959.41;;;8.27;52.45
16190;BME280;41754;51.498;7.540;2023-04-02T11:37:35;100964.66;;;8.78;51.93
16190;BME280;41754;51.498;7.540;2023-04-02T11:40:45;100984.47;;;8.70;51.62
16190;BME280;41754;51.498;7.540;2023-04-02T11:43:45;100987.41;;;8.09;52.40
16190;BME280;41754;51.498;7.540;2023-04-02T11:49:38;100992.34;;;8.12;53.31
16190;BME280;41754;51.498;7.540;2023-04-02T11:52:22;101004.66;;;8.14;51.77
16190;BME280;41754;51.498;7.540;2023-04-02T11:55:03;100997.78;;;8.32;52.01
16190;BME280;41754;51.498;7.540;2023-04-02T11:58:04;101019.22;;;7.39;53.03
16190;BME280;41754;51.498;7.540;2023-04-02T12:04:01;101012.78;;;8.60;51.06
16190;BME280;41754;51.498;7.540;2023-04-02T12:06:47;101016.50;;;7.95;51.96
16190;BME280;41754;51.498;7.540;2023-04-02T12:09:21;101027.72;;;7.78;52.28
16190;BME280;41754;51.498;7.540;2023-04-02T12:11:51;101020.03;;;8.00;51.89
16190;BME280;41754;51.498;7.540;2023-04-02T12:14:41;101018.03;;;8.46;51.23
16190;BME280;41754;51.498;7.540;2023-04-02T12:17:17;101032.31;;;8.28;50.14
16190;BME280;41754;51.498;7.540;2023-04-02T12:19:49;101040.06;;;7.65;52.09
16190;BME280;41754;51.498;7.540;2023-04-02T12:22:20;101036.16;;;8.27;50.61
16190;BME280;41754;51.498;7.540;2023-04-02T12:24:49;101036.75;;;8.19;50.11
16190;BME280;41754;51.498;7.540;2023-04-02T12:27:22;101031.22;;;8.44;49.76
16190;BME280;41754;51.498;7.540;2023-04-02T12:29:58;101035.38;;;9.07;48.84
16190;BME280;41754;51.498;7.540;2023-04-02T12:32:37;101036.00;;;8.88;48.11
16190;BME280;41754;51.498;7.540;2023-04-02T12:35:24;101038.25;;;8.81;48.48
16190;BME280;41754;51.498;7.540;2023-04-02T12:37:54;101042.19;;;9.58;47.26
16190;BME280;41754;51.498;7.540;2023-04-02T12:40:23;101034.03;;;9.82;47.16
16190;BME280;41754;51.498;7.540;2023-04-02T12:42:52;101051.03;;;10.71;44.66
16190;BME280;41754;51.498;7.540;2023-04-02T12:45:23;101044.41;;;9.56;45.86
16190;BME280;41754;51.498;7.540;2023-04-02T12:47:56;101051.25;;;9.93;44.36
16190;BME280;41754;51.498;7.540;2023-04-02T12:50:24;101048.63;;;8.89;45.33
16190;BME280;41754;51.498;7.540;2023-04-02T12:52:53;101051.00;;;9.11;46.74
16190;BME280;41754;51.498;7.540;2023-04-02T12:55:25;101058.88;;;9.28;45.87
16190;BME280;41754;51.498;7.540;2023-04-02T12:57:54;101061.41;;;9.58;45.19
16190;BME280;41754;51.498;7.540;2023-04-02T13:00:30;101057.34;;;9.51;44.46
16190;BME280;41754;51.498;7.540;2023-04-02T13:03:06;101055.34;;;9.96;44.56
16190;BME280;41754;51.498;7.540;2023-04-02T13:05:43;101058.00;;;11.68;41.04
16190;BME280;41754;51.498;7.540;2023-04-02T13:08:15;101054.59;;;10.96;41.57
16190;BME280;41754;51.498;7.540;2023-04-02T13:10:44;101063.09;;;10.75;41.28
16190;BME280;41754;51.498;7.540;2023-04-02T13:13:15;101063.31;;;10.31;41.83
16190;BME280;41754;51.498;7.540;2023-04-02T13:16:18;101072.25;;;10.71;41.71
16190;BME280;41754;51.498;7.540;2023-04-02T13:18:51;101071.09;;;10.48;41.18
16190;BME280;41754;51.498;7.540;2023-04-02T13:21:35;101071.69;;;11.17;41.82
16190;BME280;41754;51.498;7.540;2023-04-02T13:24:04;101073.25;;;11.42;40.36
16190;BME280;41754;51.498;7.540;2023-04-02T13:26:42;101065.66;;;11.90;40.11
16190;BME280;41754;51.498;7.540;2023-04-02T13:29:18;101070.13;;;12.92;38.36
16190;BME280;41754;51.498;7.540;2023-04-02T13:31:48;101071.00;;;13.79;37.34
16190;BME280;41754;51.498;7.540;2023-04-02T13:34:17;101064.56;;;15.59;33.40
16190;BME280;41754;51.498;7.540;2023-04-02T13:36:45;101065.41;;;15.94;32.07
16190;BME280;41754;51.498;7.540;2023-04-02T13:39:14;101059.00;;;14.37;35.31
16190;BME280;41754;51.498;7.540;2023-04-02T13:41:43;101068.94;;;14.38;33.71
16190;BME280;41754;51.498;7.540;2023-04-02T13:44:20;101070.22;;;12.87;35.32
16190;BME280;41754;51.498;7.540;2023-04-02T13:46:51;101066.78;;;13.45;35.74
16190;BME280;41754;51.498;7.540;2023-04-02T13:49:20;101066.88;;;12.63;36.82
16190;BME280;41754;51.498;7.540;2023-04-02T13:51:50;101079.66;;;11.75;37.35
16190;BME280;41754;51.498;7.540;2023-04-02T13:54:22;101083.81;;;11.16;38.39
16190;BME280;41754;51.498;7.540;2023-04-02T13:56:53;101084.47;;;15.53;33.29